Airfield :
LOGIN :

Register | Disclaimer

   EN    FR    IT 

 










Legend :    VFR   Marginal VFR   IFR   Intensive IFR   Very Intensive IFR
Visi :
Ceiling :
>= 8 km
>= 3000ft
5 to 8 km
1000 to 3000 ft
1500m to 5 km
500 to 1000 ft
800 to 1500m
200 to 500 ft
< 800m
< 200 ft
Symbols :   Thunderstorms  Fog  Heavy snow  Heavy precipitations  Wind > 20 kt
SIGMETs :     Misc.  Thunderstorms  Icing  Turbulence  Mountain Waves  Volcanic Ashes






- Airport Elevation : 26 ft
- IATA code : GLA


EGPF - Glasgow

CURRENT METAR :
  • 131650Z AUTO 21019KT 9999 NCD 21/15 Q1020

EXPIRED METARs :
  • 131620Z AUTO 22021KT 9999 NCD 22/15 Q1020
  • 131550Z AUTO 21020KT 9999 NCD 22/15 Q1020
  • 131520Z AUTO 22020KT 9999 NCD 22/15 Q1021
  • 131450Z AUTO 21020KT 9999 SCT025 22/15 Q1021
  • 131420Z AUTO 22020KT 9999 BKN024 22/15 Q1021

TAF TAF EGPF
Valid from the 13 at 12:00 until the 14 at 12:00 UTC


131056Z 1312/1412 23013KT 9999 SCT025
PROB40
TEMPO 1312/1318 24018G28KT
PROB40
TEMPO 1320/1323 8000 -RA BKN012
TEMPO 1323/1404 6000 RA BKN010
PROB30
TEMPO 1400/1403 3000 +RA BKN006
BECMG 1406/1409 25015G28KT
ATIS : +44 141 887 7449



MET'MAP, your aeronautical weather chart ! - Copyright ORBIFLY December 2007 - Disclaimer

ORBIFLY MET'MAP TEAM :

Programming & Development : Alexandra Zaïnal
Concept & original design : Baudouin d'Aumeries
Assistance for programming : Marc-Olivier Méhu
Technical & hardware support : Manuel Goepfert

Contact : metmap@orbifly.com




SOURCES & CREDITS :

   NOAA